sensor_id;sensor_type;location;lat;lon;timestamp;P1;durP1;ratioP1;P2;durP2;ratioP2
14708;SDS011;7445;50.774;4.944;2023-07-08T06:28:24;12.38;;;10.30;;
14708;SDS011;7445;50.774;4.944;2023-07-08T06:30:52;10.90;;;8.70;;
14708;SDS011;7445;50.774;4.944;2023-07-08T06:33:18;12.35;;;10.07;;
14708;SDS011;7445;50.774;4.944;2023-07-08T06:35:43;9.25;;;8.38;;
14708;SDS011;7445;50.774;4.944;2023-07-08T06:38:09;11.48;;;9.27;;
14708;SDS011;7445;50.774;4.944;2023-07-08T06:40:35;12.07;;;8.27;;
14708;SDS011;7445;50.774;4.944;2023-07-08T06:43:01;9.65;;;8.75;;
14708;SDS011;7445;50.774;4.944;2023-07-08T06:45:28;13.18;;;9.63;;
14708;SDS011;7445;50.774;4.944;2023-07-08T06:47:53;10.52;;;8.13;;
14708;SDS011;7445;50.774;4.944;2023-07-08T06:50:19;17.83;;;8.35;;
14708;SDS011;7445;50.774;4.944;2023-07-08T06:52:44;10.35;;;8.20;;
14708;SDS011;7445;50.774;4.944;2023-07-08T06:55:10;10.15;;;9.15;;
14708;SDS011;7445;50.774;4.944;2023-07-08T06:57:36;10.20;;;8.48;;
14708;SDS011;7445;50.774;4.944;2023-07-08T07:00:08;10.60;;;8.20;;
14708;SDS011;7445;50.774;4.944;2023-07-08T07:02:35;9.68;;;7.85;;
14708;SDS011;7445;50.774;4.944;2023-07-08T07:05:02;7.80;;;7.10;;
14708;SDS011;7445;50.774;4.944;2023-07-08T07:07:28;11.07;;;9.27;;
14708;SDS011;7445;50.774;4.944;2023-07-08T07:09:54;11.20;;;9.23;;
14708;SDS011;7445;50.774;4.944;2023-07-08T07:12:20;9.70;;;7.35;;
14708;SDS011;7445;50.774;4.944;2023-07-08T07:14:46;10.68;;;8.23;;
14708;SDS011;7445;50.774;4.944;2023-07-08T07:17:14;8.65;;;7.85;;
14708;SDS011;7445;50.774;4.944;2023-07-08T07:19:40;9.52;;;8.52;;
14708;SDS011;7445;50.774;4.944;2023-07-08T07:22:06;10.85;;;9.82;;
14708;SDS011;7445;50.774;4.944;2023-07-08T07:24:31;10.48;;;9.43;;
14708;SDS011;7445;50.774;4.944;2023-07-08T07:26:57;9.07;;;8.27;;
14708;SDS011;7445;50.774;4.944;2023-07-08T07:29:23;14.93;;;9.45;;
14708;SDS011;7445;50.774;4.944;2023-07-08T07:31:49;11.50;;;8.35;;
14708;SDS011;7445;50.774;4.944;2023-07-08T07:34:16;10.27;;;8.55;;
14708;SDS011;7445;50.774;4.944;2023-07-08T07:36:42;10.27;;;9.18;;
14708;SDS011;7445;50.774;4.944;2023-07-08T07:39:07;11.73;;;10.52;;
14708;SDS011;7445;50.774;4.944;2023-07-08T07:41:33;11.18;;;8.90;;
14708;SDS011;7445;50.774;4.944;2023-07-08T07:43:59;9.88;;;8.45;;
14708;SDS011;7445;50.774;4.944;2023-07-08T07:46:24;9.25;;;8.38;;
14708;SDS011;7445;50.774;4.944;2023-07-08T07:48:50;12.00;;;10.05;;
14708;SDS011;7445;50.774;4.944;2023-07-08T07:51:15;10.48;;;9.38;;
14708;SDS011;7445;50.774;4.944;2023-07-08T07:53:41;10.63;;;9.63;;
14708;SDS011;7445;50.774;4.944;2023-07-08T07:56:07;9.27;;;8.13;;
14708;SDS011;7445;50.774;4.944;2023-07-08T07:58:33;14.15;;;9.70;;
14708;SDS011;7445;50.774;4.944;2023-07-08T08:00:59;9.52;;;8.63;;
14708;SDS011;7445;50.774;4.944;2023-07-08T08:03:25;10.45;;;9.52;;
14708;SDS011;7445;50.774;4.944;2023-07-08T08:05:51;13.63;;;10.73;;
14708;SDS011;7445;50.774;4.944;2023-07-08T08:08:17;9.77;;;8.88;;
14708;SDS011;7445;50.774;4.944;2023-07-08T08:10:42;10.65;;;9.55;;
14708;SDS011;7445;50.774;4.944;2023-07-08T08:13:08;10.93;;;9.60;;
14708;SDS011;7445;50.774;4.944;2023-07-08T08:15:35;13.77;;;9.25;;
14708;SDS011;7445;50.774;4.944;2023-07-08T08:18:00;13.60;;;10.52;;
14708;SDS011;7445;50.774;4.944;2023-07-08T08:20:27;10.68;;;9.10;;
14708;SDS011;7445;50.774;4.944;2023-07-08T08:22:53;9.23;;;8.27;;
14708;SDS011;7445;50.774;4.944;2023-07-08T08:25:20;9.10;;;8.27;;
14708;SDS011;7445;50.774;4.944;2023-07-08T08:27:47;9.70;;;8.52;;
14708;SDS011;7445;50.774;4.944;2023-07-08T08:30:12;11.30;;;9.52;;
14708;SDS011;7445;50.774;4.944;2023-07-08T08:32:38;10.13;;;8.75;;
14708;SDS011;7445;50.774;4.944;2023-07-08T08:35:04;11.50;;;10.38;;
14708;SDS011;7445;50.774;4.944;2023-07-08T08:37:30;12.23;;;11.02;;
14708;SDS011;7445;50.774;4.944;2023-07-08T08:39:56;11.73;;;10.57;;
14708;SDS011;7445;50.774;4.944;2023-07-08T08:42:30;11.65;;;10.52;;
14708;SDS011;7445;50.774;4.944;2023-07-08T08:45:09;12.73;;;10.15;;
14708;SDS011;7445;50.774;4.944;2023-07-08T08:47:39;9.48;;;8.50;;
14708;SDS011;7445;50.774;4.944;2023-07-08T08:52:45;12.73;;;10.23;;
14708;SDS011;7445;50.774;4.944;2023-07-08T08:55:11;10.57;;;9.57;;
14708;SDS011;7445;50.774;4.944;2023-07-08T08:57:41;11.02;;;9.93;;
14708;SDS011;7445;50.774;4.944;2023-07-08T09:00:16;14.68;;;10.70;;
14708;SDS011;7445;50.774;4.944;2023-07-08T09:02:56;10.40;;;9.40;;
14708;SDS011;7445;50.774;4.944;2023-07-08T09:05:32;11.85;;;10.75;;
14708;SDS011;7445;50.774;4.944;2023-07-08T09:08:12;10.65;;;9.55;;
14708;SDS011;7445;50.774;4.944;2023-07-08T09:13:34;11.40;;;10.02;;
14708;SDS011;7445;50.774;4.944;2023-07-08T09:16:02;11.02;;;9.93;;
14708;SDS011;7445;50.774;4.944;2023-07-08T09:18:45;10.98;;;9.38;;
14708;SDS011;7445;50.774;4.944;2023-07-08T09:21:16;11.95;;;10.73;;
14708;SDS011;7445;50.774;4.944;2023-07-08T09:23:46;10.35;;;9.43;;
14708;SDS011;7445;50.774;4.944;2023-07-08T09:26:16;11.88;;;10.23;;
14708;SDS011;7445;50.774;4.944;2023-07-08T09:28:46;11.50;;;10.07;;
14708;SDS011;7445;50.774;4.944;2023-07-08T09:31:20;12.10;;;10.63;;
14708;SDS011;7445;50.774;4.944;2023-07-08T09:34:04;12.32;;;10.57;;
14708;SDS011;7445;50.774;4.944;2023-07-08T09:36:32;12.15;;;10.32;;
14708;SDS011;7445;50.774;4.944;2023-07-08T09:38:58;9.20;;;8.07;;
14708;SDS011;7445;50.774;4.944;2023-07-08T09:41:29;10.93;;;9.93;;
14708;SDS011;7445;50.774;4.944;2023-07-08T09:46:51;11.65;;;10.48;;
14708;SDS011;7445;50.774;4.944;2023-07-08T09:51:56;9.52;;;8.73;;
14708;SDS011;7445;50.774;4.944;2023-07-08T09:54:23;11.18;;;8.55;;
14708;SDS011;7445;50.774;4.944;2023-07-08T09:59:38;14.73;;;9.18;;
14708;SDS011;7445;50.774;4.944;2023-07-08T10:05:14;11.50;;;9.63;;
14708;SDS011;7445;50.774;4.944;2023-07-08T10:07:40;10.50;;;9.50;;
14708;SDS011;7445;50.774;4.944;2023-07-08T10:10:07;10.52;;;9.57;;
14708;SDS011;7445;50.774;4.944;2023-07-08T10:12:39;12.13;;;9.43;;
14708;SDS011;7445;50.774;4.944;2023-07-08T10:18:04;10.38;;;9.38;;
14708;SDS011;7445;50.774;4.944;2023-07-08T10:23:34;10.85;;;8.80;;
14708;SDS011;7445;50.774;4.944;2023-07-08T10:26:15;12.80;;;10.45;;
14708;SDS011;7445;50.774;4.944;2023-07-08T10:29:22;14.95;;;10.63;;
14708;SDS011;7445;50.774;4.944;2023-07-08T10:35:08;10.82;;;9.80;;
14708;SDS011;7445;50.774;4.944;2023-07-08T10:40:54;10.00;;;9.02;;
14708;SDS011;7445;50.774;4.944;2023-07-08T10:43:40;9.77;;;8.77;;
14708;SDS011;7445;50.774;4.944;2023-07-08T10:55:11;12.10;;;10.82;;
14708;SDS011;7445;50.774;4.944;2023-07-08T10:58:04;13.02;;;11.75;;
14708;SDS011;7445;50.774;4.944;2023-07-08T11:06:22;12.32;;;8.48;;
14708;SDS011;7445;50.774;4.944;2023-07-08T11:08:57;11.50;;;9.13;;
14708;SDS011;7445;50.774;4.944;2023-07-08T11:14:28;8.95;;;8.10;;
14708;SDS011;7445;50.774;4.944;2023-07-08T11:17:12;12.55;;;8.88;;
14708;SDS011;7445;50.774;4.944;2023-07-08T11:19:47;10.00;;;9.10;;
14708;SDS011;7445;50.774;4.944;2023-07-08T11:22:19;14.13;;;9.05;;
14708;SDS011;7445;50.774;4.944;2023-07-08T11:24:49;12.43;;;9.55;;
14708;SDS011;7445;50.774;4.944;2023-07-08T11:29:53;9.23;;;8.32;;
14708;SDS011;7445;50.774;4.944;2023-07-08T11:32:45;12.65;;;8.50;;
14708;SDS011;7445;50.774;4.944;2023-07-08T11:35:20;11.13;;;9.90;;
14708;SDS011;7445;50.774;4.944;2023-07-08T11:37:50;10.75;;;7.95;;
14708;SDS011;7445;50.774;4.944;2023-07-08T11:40:18;11.45;;;9.20;;
14708;SDS011;7445;50.774;4.944;2023-07-08T11:43:02;12.15;;;9.25;;
14708;SDS011;7445;50.774;4.944;2023-07-08T11:45:40;10.43;;;8.40;;
14708;SDS011;7445;50.774;4.944;2023-07-08T11:48:26;8.90;;;7.97;;
14708;SDS011;7445;50.774;4.944;2023-07-08T11:50:59;9.60;;;8.55;;
14708;SDS011;7445;50.774;4.944;2023-07-08T11:54:20;10.90;;;9.80;;
14708;SDS011;7445;50.774;4.944;2023-07-08T11:57:00;9.88;;;8.88;;
14708;SDS011;7445;50.774;4.944;2023-07-08T11:59:31;11.95;;;9.77;;
14708;SDS011;7445;50.774;4.944;2023-07-08T12:04:55;11.13;;;8.93;;
14708;SDS011;7445;50.774;4.944;2023-07-08T12:07:28;9.77;;;8.88;;
14708;SDS011;7445;50.774;4.944;2023-07-08T12:10:16;12.02;;;9.48;;
14708;SDS011;7445;50.774;4.944;2023-07-08T12:12:44;9.93;;;9.02;;
14708;SDS011;7445;50.774;4.944;2023-07-08T12:17:43;9.35;;;8.30;;
14708;SDS011;7445;50.774;4.944;2023-07-08T12:20:17;10.93;;;9.13;;
14708;SDS011;7445;50.774;4.944;2023-07-08T12:22:46;9.48;;;8.70;;
14708;SDS011;7445;50.774;4.944;2023-07-08T12:25:16;13.25;;;9.68;;
14708;SDS011;7445;50.774;4.944;2023-07-08T12:27:44;10.68;;;8.75;;
14708;SDS011;7445;50.774;4.944;2023-07-08T12:30:11;9.82;;;8.93;;
14708;SDS011;7445;50.774;4.944;2023-07-08T12:32:39;10.38;;;9.43;;
14708;SDS011;7445;50.774;4.944;2023-07-08T12:35:05;9.20;;;8.40;;
14708;SDS011;7445;50.774;4.944;2023-07-08T12:37:43;9.77;;;8.35;;
14708;SDS011;7445;50.774;4.944;2023-07-08T12:40:09;11.73;;;9.02;;
14708;SDS011;7445;50.774;4.944;2023-07-08T12:42:36;10.23;;;8.25;;
14708;SDS011;7445;50.774;4.944;2023-07-08T12:45:01;10.82;;;8.52;;
14708;SDS011;7445;50.774;4.944;2023-07-08T12:47:27;8.15;;;7.38;;
14708;SDS011;7445;50.774;4.944;2023-07-08T12:49:52;9.15;;;8.45;;
14708;SDS011;7445;50.774;4.944;2023-07-08T12:52:22;10.07;;;9.07;;
14708;SDS011;7445;50.774;4.944;2023-07-08T12:54:49;9.90;;;9.00;;
14708;SDS011;7445;50.774;4.944;2023-07-08T12:57:18;8.82;;;8.02;;
14708;SDS011;7445;50.774;4.944;2023-07-08T12:59:44;9.88;;;8.07;;
14708;SDS011;7445;50.774;4.944;2023-07-08T13:02:19;10.18;;;8.35;;
14708;SDS011;7445;50.774;4.944;2023-07-08T13:04:47;8.10;;;7.30;;
14708;SDS011;7445;50.774;4.944;2023-07-08T13:07:22;9.38;;;7.78;;
14708;SDS011;7445;50.774;4.944;2023-07-08T13:10:01;9.40;;;8.50;;
14708;SDS011;7445;50.774;4.944;2023-07-08T13:12:29;9.77;;;7.63;;
14708;SDS011;7445;50.774;4.944;2023-07-08T13:15:00;12.18;;;6.78;;
14708;SDS011;7445;50.774;4.944;2023-07-08T13:17:28;8.30;;;6.43;;
14708;SDS011;7445;50.774;4.944;2023-07-08T13:19:54;9.18;;;6.55;;
14708;SDS011;7445;50.774;4.944;2023-07-08T13:22:21;8.02;;;6.03;;
14708;SDS011;7445;50.774;4.944;2023-07-08T13:24:58;7.53;;;6.82;;
14708;SDS011;7445;50.774;4.944;2023-07-08T13:27:25;10.55;;;6.60;;
14708;SDS011;7445;50.774;4.944;2023-07-08T13:29:54;5.57;;;5.10;;
14708;SDS011;7445;50.774;4.944;2023-07-08T13:32:29;8.32;;;5.40;;
14708;SDS011;7445;50.774;4.944;2023-07-08T13:34:56;8.23;;;5.15;;
14708;SDS011;7445;50.774;4.944;2023-07-08T13:37:24;7.13;;;6.43;;
14708;SDS011;7445;50.774;4.944;2023-07-08T13:40:31;6.57;;;5.90;;
14708;SDS011;7445;50.774;4.944;2023-07-08T13:43:04;10.35;;;5.78;;
14708;SDS011;7445;50.774;4.944;2023-07-08T13:48:20;7.05;;;6.40;;
14708;SDS011;7445;50.774;4.944;2023-07-08T13:51:19;7.20;;;6.50;;
14708;SDS011;7445;50.774;4.944;2023-07-08T13:53:52;6.13;;;5.53;;
14708;SDS011;7445;50.774;4.944;2023-07-08T13:57:00;5.97;;;5.43;;
14708;SDS011;7445;50.774;4.944;2023-07-08T13:59:56;7.40;;;6.72;;
14708;SDS011;7445;50.774;4.944;2023-07-08T14:02:26;7.68;;;5.78;;
14708;SDS011;7445;50.774;4.944;2023-07-08T14:04:56;8.48;;;5.82;;
14708;SDS011;7445;50.774;4.944;2023-07-08T14:07:35;6.85;;;6.15;;
14708;SDS011;7445;50.774;4.944;2023-07-08T14:10:04;9.68;;;6.93;;
14708;SDS011;7445;50.774;4.944;2023-07-08T14:12:36;11.15;;;7.05;;
14708;SDS011;7445;50.774;4.944;2023-07-08T14:15:04;8.05;;;6.38;;
14708;SDS011;7445;50.774;4.944;2023-07-08T14:17:32;7.55;;;6.75;;
14708;SDS011;7445;50.774;4.944;2023-07-08T14:20:01;6.80;;;6.20;;
14708;SDS011;7445;50.774;4.944;2023-07-08T14:22:29;8.27;;;7.35;;
14708;SDS011;7445;50.774;4.944;2023-07-08T14:24:56;6.95;;;6.25;;
14708;SDS011;7445;50.774;4.944;2023-07-08T14:27:26;7.75;;;5.70;;
14708;SDS011;7445;50.774;4.944;2023-07-08T14:29:51;8.73;;;6.60;;
14708;SDS011;7445;50.774;4.944;2023-07-08T14:32:28;7.80;;;6.38;;
14708;SDS011;7445;50.774;4.944;2023-07-08T14:35:24;7.90;;;7.20;;
14708;SDS011;7445;50.774;4.944;2023-07-08T14:38:31;8.40;;;6.03;;
14708;SDS011;7445;50.774;4.944;2023-07-08T14:40:56;8.38;;;5.45;;
14708;SDS011;7445;50.774;4.944;2023-07-08T14:43:27;7.90;;;5.55;;
14708;SDS011;7445;50.774;4.944;2023-07-08T14:45:55;6.85;;;6.00;;
14708;SDS011;7445;50.774;4.944;2023-07-08T14:48:23;9.05;;;5.40;;
14708;SDS011;7445;50.774;4.944;2023-07-08T14:50:49;9.98;;;6.13;;
14708;SDS011;7445;50.774;4.944;2023-07-08T14:53:16;7.45;;;5.63;;
14708;SDS011;7445;50.774;4.944;2023-07-08T14:55:43;8.88;;;7.43;;
14708;SDS011;7445;50.774;4.944;2023-07-08T14:58:32;8.48;;;7.60;;
14708;SDS011;7445;50.774;4.944;2023-07-08T15:01:07;10.10;;;6.80;;
14708;SDS011;7445;50.774;4.944;2023-07-08T15:03:38;8.27;;;6.95;;
14708;SDS011;7445;50.774;4.944;2023-07-08T15:06:10;7.57;;;6.72;;
14708;SDS011;7445;50.774;4.944;2023-07-08T15:08:36;8.05;;;7.30;;
14708;SDS011;7445;50.774;4.944;2023-07-08T15:11:02;9.85;;;7.28;;
14708;SDS011;7445;50.774;4.944;2023-07-08T15:13:31;7.85;;;7.10;;
14708;SDS011;7445;50.774;4.944;2023-07-08T15:15:57;14.98;;;7.70;;
14708;SDS011;7445;50.774;4.944;2023-07-08T15:18:24;7.93;;;7.25;;
14708;SDS011;7445;50.774;4.944;2023-07-08T15:21:03;9.57;;;8.02;;
14708;SDS011;7445;50.774;4.944;2023-07-08T15:23:29;8.40;;;6.70;;
14708;SDS011;7445;50.774;4.944;2023-07-08T15:25:55;7.85;;;7.15;;
14708;SDS011;7445;50.774;4.944;2023-07-08T15:28:34;7.75;;;6.57;;
14708;SDS011;7445;50.774;4.944;2023-07-08T15:31:12;11.80;;;8.57;;
14708;SDS011;7445;50.774;4.944;2023-07-08T15:33:40;7.97;;;7.25;;
14708;SDS011;7445;50.774;4.944;2023-07-08T15:36:07;8.23;;;7.53;;
14708;SDS011;7445;50.774;4.944;2023-07-08T15:38:37;9.27;;;8.43;;
14708;SDS011;7445;50.774;4.944;2023-07-08T15:44:12;9.68;;;7.95;;
14708;SDS011;7445;50.774;4.944;2023-07-08T15:46:50;8.85;;;7.63;;
14708;SDS011;7445;50.774;4.944;2023-07-08T15:49:30;8.40;;;7.60;;
14708;SDS011;7445;50.774;4.944;2023-07-08T15:51:56;8.05;;;7.22;;
14708;SDS011;7445;50.774;4.944;2023-07-08T15:54:24;7.85;;;7.05;;
14708;SDS011;7445;50.774;4.944;2023-07-08T15:56:57;13.10;;;9.23;;
14708;SDS011;7445;50.774;4.944;2023-07-08T15:59:25;9.10;;;7.32;;
14708;SDS011;7445;50.774;4.944;2023-07-08T16:01:57;10.68;;;7.55;;
14708;SDS011;7445;50.774;4.944;2023-07-08T16:04:49;8.82;;;7.82;;
14708;SDS011;7445;50.774;4.944;2023-07-08T16:07:17;9.25;;;8.25;;
14708;SDS011;7445;50.774;4.944;2023-07-08T16:10:20;8.80;;;7.75;;
14708;SDS011;7445;50.774;4.944;2023-07-08T16:12:54;7.82;;;7.07;;
14708;SDS011;7445;50.774;4.944;2023-07-08T16:15:28;9.95;;;7.55;;
14708;SDS011;7445;50.774;4.944;2023-07-08T16:17:57;7.82;;;7.15;;
14708;SDS011;7445;50.774;4.944;2023-07-08T16:20:26;9.90;;;8.95;;
14708;SDS011;7445;50.774;4.944;2023-07-08T16:22:52;10.50;;;8.55;;
14708;SDS011;7445;50.774;4.944;2023-07-08T16:25:26;9.95;;;9.13;;
14708;SDS011;7445;50.774;4.944;2023-07-08T16:27:54;12.63;;;8.40;;
14708;SDS011;7445;50.774;4.944;2023-07-08T16:30:22;9.38;;;8.48;;
14708;SDS011;7445;50.774;4.944;2023-07-08T16:33:07;8.60;;;7.75;;
14708;SDS011;7445;50.774;4.944;2023-07-08T16:35:59;8.40;;;7.60;;
14708;SDS011;7445;50.774;4.944;2023-07-08T16:38:55;7.82;;;7.13;;
14708;SDS011;7445;50.774;4.944;2023-07-08T16:41:39;7.78;;;7.00;;
14708;SDS011;7445;50.774;4.944;2023-07-08T16:44:13;8.50;;;7.72;;
14708;SDS011;7445;50.774;4.944;2023-07-08T16:46:59;7.95;;;7.15;;
14708;SDS011;7445;50.774;4.944;2023-07-08T16:49:26;8.77;;;7.88;;
14708;SDS011;7445;50.774;4.944;2023-07-08T16:51:52;14.07;;;8.10;;
14708;SDS011;7445;50.774;4.944;2023-07-08T16:54:18;9.20;;;8.23;;
14708;SDS011;7445;50.774;4.944;2023-07-08T16:56:44;23.48;;;9.38;;
14708;SDS011;7445;50.774;4.944;2023-07-08T16:59:12;8.35;;;7.35;;
14708;SDS011;7445;50.774;4.944;2023-07-08T17:01:40;8.38;;;7.55;;
14708;SDS011;7445;50.774;4.944;2023-07-08T17:04:08;9.57;;;8.57;;
14708;SDS011;7445;50.774;4.944;2023-07-08T17:06:36;14.88;;;7.32;;
14708;SDS011;7445;50.774;4.944;2023-07-08T17:09:02;8.88;;;7.70;;
14708;SDS011;7445;50.774;4.944;2023-07-08T17:11:29;8.60;;;6.57;;
14708;SDS011;7445;50.774;4.944;2023-07-08T17:13:55;7.05;;;6.38;;
14708;SDS011;7445;50.774;4.944;2023-07-08T17:16:24;7.50;;;6.90;;
14708;SDS011;7445;50.774;4.944;2023-07-08T17:18:58;11.63;;;7.05;;
14708;SDS011;7445;50.774;4.944;2023-07-08T17:21:24;7.97;;;7.18;;
14708;SDS011;7445;50.774;4.944;2023-07-08T17:23:49;7.25;;;6.38;;
14708;SDS011;7445;50.774;4.944;2023-07-08T17:26:15;7.53;;;6.90;;
14708;SDS011;7445;50.774;4.944;2023-07-08T17:28:41;8.43;;;6.65;;
14708;SDS011;7445;50.774;4.944;2023-07-08T17:31:09;7.38;;;6.68;;
14708;SDS011;7445;50.774;4.944;2023-07-08T17:33:46;9.80;;;7.03;;
14708;SDS011;7445;50.774;4.944;2023-07-08T17:36:15;11.68;;;6.75;;
14708;SDS011;7445;50.774;4.944;2023-07-08T17:38:45;7.85;;;6.85;;
14708;SDS011;7445;50.774;4.944;2023-07-08T17:41:14;8.25;;;7.07;;
14708;SDS011;7445;50.774;4.944;2023-07-08T17:43:41;7.30;;;6.60;;
14708;SDS011;7445;50.774;4.944;2023-07-08T17:46:11;10.10;;;6.28;;
14708;SDS011;7445;50.774;4.944;2023-07-08T17:48:40;12.57;;;7.18;;
14708;SDS011;7445;50.774;4.944;2023-07-08T17:51:11;7.40;;;5.82;;
14708;SDS011;7445;50.774;4.944;2023-07-08T17:53:41;7.03;;;5.97;;
14708;SDS011;7445;50.774;4.944;2023-07-08T17:56:30;11.35;;;6.63;;
14708;SDS011;7445;50.774;4.944;2023-07-08T17:58:55;7.35;;;6.75;;
14708;SDS011;7445;50.774;4.944;2023-07-08T18:01:23;6.25;;;5.45;;
14708;SDS011;7445;50.774;4.944;2023-07-08T18:03:49;6.53;;;5.95;;
14708;SDS011;7445;50.774;4.944;2023-07-08T18:06:15;10.02;;;6.53;;
14708;SDS011;7445;50.774;4.944;2023-07-08T18:08:41;8.93;;;6.47;;
14708;SDS011;7445;50.774;4.944;2023-07-08T18:11:09;7.20;;;6.60;;
14708;SDS011;7445;50.774;4.944;2023-07-08T18:13:37;7.35;;;6.68;;
14708;SDS011;7445;50.774;4.944;2023-07-08T18:16:05;10.10;;;6.65;;
14708;SDS011;7445;50.774;4.944;2023-07-08T18:18:36;8.05;;;6.53;;
14708;SDS011;7445;50.774;4.944;2023-07-08T18:21:01;9.82;;;7.97;;
14708;SDS011;7445;50.774;4.944;2023-07-08T18:23:29;8.57;;;6.93;;
14708;SDS011;7445;50.774;4.944;2023-07-08T18:25:58;9.23;;;8.32;;
14708;SDS011;7445;50.774;4.944;2023-07-08T18:28:24;10.57;;;6.95;;
14708;SDS011;7445;50.774;4.944;2023-07-08T18:30:50;9.05;;;7.43;;
14708;SDS011;7445;50.774;4.944;2023-07-08T18:33:17;9.18;;;8.05;;
14708;SDS011;7445;50.774;4.944;2023-07-08T18:35:44;8.43;;;7.63;;
14708;SDS011;7445;50.774;4.944;2023-07-08T18:38:11;7.53;;;6.93;;
14708;SDS011;7445;50.774;4.944;2023-07-08T18:40:41;8.57;;;7.78;;
14708;SDS011;7445;50.774;4.944;2023-07-08T18:43:18;8.27;;;7.57;;
14708;SDS011;7445;50.774;4.944;2023-07-08T18:45:46;9.32;;;8.07;;
14708;SDS011;7445;50.774;4.944;2023-07-08T18:48:13;9.70;;;7.68;;
14708;SDS011;7445;50.774;4.944;2023-07-08T18:50:40;11.05;;;8.40;;
14708;SDS011;7445;50.774;4.944;2023-07-08T18:53:11;12.95;;;7.95;;
14708;SDS011;7445;50.774;4.944;2023-07-08T18:55:38;8.05;;;7.15;;
14708;SDS011;7445;50.774;4.944;2023-07-08T18:58:04;9.00;;;7.28;;
14708;SDS011;7445;50.774;4.944;2023-07-08T19:00:30;16.17;;;9.52;;
14708;SDS011;7445;50.774;4.944;2023-07-08T19:02:56;19.75;;;9.43;;
14708;SDS011;7445;50.774;4.944;2023-07-08T19:05:24;19.60;;;8.48;;
14708;SDS011;7445;50.774;4.944;2023-07-08T19:07:50;13.23;;;7.90;;
14708;SDS011;7445;50.774;4.944;2023-07-08T19:10:18;12.10;;;7.93;;
14708;SDS011;7445;50.774;4.944;2023-07-08T19:12:46;11.02;;;8.65;;
14708;SDS011;7445;50.774;4.944;2023-07-08T19:15:34;12.30;;;8.57;;
14708;SDS011;7445;50.774;4.944;2023-07-08T19:17:59;41.78;;;10.70;;
14708;SDS011;7445;50.774;4.944;2023-07-08T19:20:35;20.85;;;8.73;;
14708;SDS011;7445;50.774;4.944;2023-07-08T19:23:02;16.42;;;8.38;;
14708;SDS011;7445;50.774;4.944;2023-07-08T19:25:33;10.32;;;8.88;;
14708;SDS011;7445;50.774;4.944;2023-07-08T19:27:59;19.33;;;8.88;;
14708;SDS011;7445;50.774;4.944;2023-07-08T19:30:25;8.13;;;7.38;;
14708;SDS011;7445;50.774;4.944;2023-07-08T19:32:53;11.10;;;7.15;;
14708;SDS011;7445;50.774;4.944;2023-07-08T19:35:21;9.27;;;8.38;;
14708;SDS011;7445;50.774;4.944;2023-07-08T19:37:48;8.02;;;7.22;;
14708;SDS011;7445;50.774;4.944;2023-07-08T19:40:16;10.52;;;8.18;;
14708;SDS011;7445;50.774;4.944;2023-07-08T19:42:44;9.30;;;8.25;;
14708;SDS011;7445;50.774;4.944;2023-07-08T19:45:16;9.57;;;8.68;;
14708;SDS011;7445;50.774;4.944;2023-07-08T19:47:48;9.35;;;7.60;;
14708;SDS011;7445;50.774;4.944;2023-07-08T19:50:15;10.20;;;7.80;;
14708;SDS011;7445;50.774;4.944;2023-07-08T19:52:42;16.30;;;7.85;;
14708;SDS011;7445;50.774;4.944;2023-07-08T19:55:08;8.52;;;7.60;;
14708;SDS011;7445;50.774;4.944;2023-07-08T20:00:28;8.85;;;7.97;;
14708;SDS011;7445;50.774;4.944;2023-07-08T20:03:14;8.73;;;7.88;;
14708;SDS011;7445;50.774;4.944;2023-07-08T20:05:46;8.32;;;7.35;;
14708;SDS011;7445;50.774;4.944;2023-07-08T20:08:29;11.43;;;7.60;;
14708;SDS011;7445;50.774;4.944;2023-07-08T20:10:56;15.52;;;8.65;;
14708;SDS011;7445;50.774;4.944;2023-07-08T20:13:25;8.90;;;8.18;;
14708;SDS011;7445;50.774;4.944;2023-07-08T20:15:51;10.50;;;7.35;;
14708;SDS011;7445;50.774;4.944;2023-07-08T20:18:19;9.20;;;8.30;;
14708;SDS011;7445;50.774;4.944;2023-07-08T20:20:56;10.32;;;8.73;;
14708;SDS011;7445;50.774;4.944;2023-07-08T20:23:31;10.23;;;6.95;;
14708;SDS011;7445;50.774;4.944;2023-07-08T20:26:27;8.15;;;7.00;;
14708;SDS011;7445;50.774;4.944;2023-07-08T20:28:57;8.13;;;7.03;;
14708;SDS011;7445;50.774;4.944;2023-07-08T20:31:24;7.93;;;7.20;;
14708;SDS011;7445;50.774;4.944;2023-07-08T20:33:50;7.28;;;6.47;;
14708;SDS011;7445;50.774;4.944;2023-07-08T20:36:18;9.48;;;7.95;;
14708;SDS011;7445;50.774;4.944;2023-07-08T20:38:45;12.13;;;8.43;;
14708;SDS011;7445;50.774;4.944;2023-07-08T20:41:11;8.77;;;6.60;;
14708;SDS011;7445;50.774;4.944;2023-07-08T20:43:36;8.88;;;7.70;;
14708;SDS011;7445;50.774;4.944;2023-07-08T20:46:02;9.55;;;8.32;;
14708;SDS011;7445;50.774;4.944;2023-07-08T20:48:34;9.18;;;7.88;;
14708;SDS011;7445;50.774;4.944;2023-07-08T20:51:00;8.60;;;7.78;;
14708;SDS011;7445;50.774;4.944;2023-07-08T20:53:26;7.90;;;7.20;;
14708;SDS011;7445;50.774;4.944;2023-07-08T20:55:52;13.70;;;10.05;;
14708;SDS011;7445;50.774;4.944;2023-07-08T20:58:19;7.50;;;6.80;;
14708;SDS011;7445;50.774;4.944;2023-07-08T21:00:47;10.52;;;7.68;;
14708;SDS011;7445;50.774;4.944;2023-07-08T21:03:14;11.85;;;7.63;;
14708;SDS011;7445;50.774;4.944;2023-07-08T21:05:53;8.07;;;7.25;;
14708;SDS011;7445;50.774;4.944;2023-07-08T21:08:24;10.32;;;8.45;;
14708;SDS011;7445;50.774;4.944;2023-07-08T21:10:53;10.93;;;8.00;;
14708;SDS011;7445;50.774;4.944;2023-07-08T21:13:20;8.90;;;7.80;;
14708;SDS011;7445;50.774;4.944;2023-07-08T21:15:46;11.65;;;8.30;;
14708;SDS011;7445;50.774;4.944;2023-07-08T21:18:14;10.25;;;7.82;;
14708;SDS011;7445;50.774;4.944;2023-07-08T21:20:42;9.32;;;8.10;;
14708;SDS011;7445;50.774;4.944;2023-07-08T21:23:08;9.85;;;8.30;;
14708;SDS011;7445;50.774;4.944;2023-07-08T21:25:39;9.10;;;8.18;;
14708;SDS011;7445;50.774;4.944;2023-07-08T21:28:05;9.55;;;7.68;;
14708;SDS011;7445;50.774;4.944;2023-07-08T21:30:37;9.20;;;6.60;;
14708;SDS011;7445;50.774;4.944;2023-07-08T21:33:02;7.90;;;7.20;;
14708;SDS011;7445;50.774;4.944;2023-07-08T21:35:28;9.77;;;7.85;;
14708;SDS011;7445;50.774;4.944;2023-07-08T21:37:58;8.32;;;7.53;;
14708;SDS011;7445;50.774;4.944;2023-07-08T21:40:30;10.25;;;7.93;;
14708;SDS011;7445;50.774;4.944;2023-07-08T21:42:56;9.50;;;6.68;;
14708;SDS011;7445;50.774;4.944;2023-07-08T21:45:40;7.38;;;6.75;;
